sensor_id;sensor_type;location;lat;lon;timestamp;pressure;altitude;pressure_sealevel;temperature;humidity
73974;BME280;62336;-26.094;27.994;2024-01-10T00:00:51;84684.02;;;31.74;24.38
73974;BME280;62336;-26.094;27.994;2024-01-10T00:03:16;84681.45;;;31.85;24.19
73974;BME280;62336;-26.094;27.994;2024-01-10T00:05:42;84680.78;;;31.89;24.23
73974;BME280;62336;-26.094;27.994;2024-01-10T00:08:09;84681.64;;;32.43;23.58
73974;BME280;62336;-26.094;27.994;2024-01-10T00:10:33;84682.43;;;32.08;23.82
73974;BME280;62336;-26.094;27.994;2024-01-10T00:12:59;84683.03;;;31.93;24.30
73974;BME280;62336;-26.094;27.994;2024-01-10T00:15:25;84682.66;;;32.15;23.91
73974;BME280;62336;-26.094;27.994;2024-01-10T00:17:50;84685.97;;;32.85;23.22
73974;BME280;62336;-26.094;27.994;2024-01-10T00:20:15;84688.38;;;32.85;23.31
73974;BME280;62336;-26.094;27.994;2024-01-10T00:22:40;84689.06;;;32.44;23.36
73974;BME280;62336;-26.094;27.994;2024-01-10T00:25:07;84692.27;;;32.35;23.45
73974;BME280;62336;-26.094;27.994;2024-01-10T00:27:31;84697.87;;;32.64;23.27
73974;BME280;62336;-26.094;27.994;2024-01-10T00:29:57;84698.76;;;32.28;23.74
73974;BME280;62336;-26.094;27.994;2024-01-10T00:32:23;84701.06;;;31.92;24.09
73974;BME280;62336;-26.094;27.994;2024-01-10T00:34:48;84694.28;;;32.01;24.03
73974;BME280;62336;-26.094;27.994;2024-01-10T00:37:14;84686.65;;;32.86;23.45
73974;BME280;62336;-26.094;27.994;2024-01-10T00:39:39;84686.95;;;32.51;23.44
73974;BME280;62336;-26.094;27.994;2024-01-10T00:42:05;84693.80;;;32.17;23.41
73974;BME280;62336;-26.094;27.994;2024-01-10T00:44:31;84686.37;;;32.14;23.52
73974;BME280;62336;-26.094;27.994;2024-01-10T00:46:56;84675.15;;;32.09;23.52
73974;BME280;62336;-26.094;27.994;2024-01-10T00:49:21;84668.87;;;32.15;23.73
73974;BME280;62336;-26.094;27.994;2024-01-10T00:51:47;84672.27;;;32.92;23.11
73974;BME280;62336;-26.094;27.994;2024-01-10T00:54:12;84672.68;;;33.24;22.58
73974;BME280;62336;-26.094;27.994;2024-01-10T00:56:37;84676.05;;;33.18;22.80
73974;BME280;62336;-26.094;27.994;2024-01-10T00:59:03;84676.95;;;32.56;23.05
73974;BME280;62336;-26.094;27.994;2024-01-10T01:01:29;84675.37;;;32.54;23.21
73974;BME280;62336;-26.094;27.994;2024-01-10T01:03:54;84671.83;;;32.51;23.29
73974;BME280;62336;-26.094;27.994;2024-01-10T01:06:21;84660.50;;;32.53;23.30
73974;BME280;62336;-26.094;27.994;2024-01-10T01:08:46;84653.24;;;31.97;23.53
73974;BME280;62336;-26.094;27.994;2024-01-10T01:11:11;84648.54;;;31.80;23.68
73974;BME280;62336;-26.094;27.994;2024-01-10T01:13:37;84651.99;;;32.97;22.95
73974;BME280;62336;-26.094;27.994;2024-01-10T01:16:03;84653.13;;;31.99;23.38
73974;BME280;62336;-26.094;27.994;2024-01-10T01:18:29;84646.83;;;31.68;23.62
73974;BME280;62336;-26.094;27.994;2024-01-10T01:20:56;84639.04;;;32.59;23.26
73974;BME280;62336;-26.094;27.994;2024-01-10T01:23:19;84635.52;;;32.14;23.39
73974;BME280;62336;-26.094;27.994;2024-01-10T01:25:45;84635.13;;;32.07;23.30
73974;BME280;62336;-26.094;27.994;2024-01-10T01:28:10;84631.89;;;32.59;23.12
73974;BME280;62336;-26.094;27.994;2024-01-10T01:30:35;84628.85;;;32.59;23.10
73974;BME280;62336;-26.094;27.994;2024-01-10T01:33:01;84627.74;;;32.56;22.97
73974;BME280;62336;-26.094;27.994;2024-01-10T01:35:26;84621.60;;;33.09;22.48
73974;BME280;62336;-26.094;27.994;2024-01-10T01:37:52;84623.72;;;32.70;22.73
73974;BME280;62336;-26.094;27.994;2024-01-10T01:40:18;84620.89;;;32.51;22.47
73974;BME280;62336;-26.094;27.994;2024-01-10T01:42:45;84616.48;;;33.09;22.09
73974;BME280;62336;-26.094;27.994;2024-01-10T01:45:09;84615.87;;;33.19;22.13
73974;BME280;62336;-26.094;27.994;2024-01-10T01:47:34;84620.26;;;33.05;22.00
73974;BME280;62336;-26.094;27.994;2024-01-10T01:50:00;84623.72;;;32.48;22.34
73974;BME280;62336;-26.094;27.994;2024-01-10T01:52:25;84620.65;;;32.94;22.16
73974;BME280;62336;-26.094;27.994;2024-01-10T01:54:50;84618.77;;;33.27;21.57
73974;BME280;62336;-26.094;27.994;2024-01-10T01:57:16;84617.45;;;32.88;22.00
73974;BME280;62336;-26.094;27.994;2024-01-10T01:59:47;84622.99;;;32.40;22.02
73974;BME280;62336;-26.094;27.994;2024-01-10T02:02:08;84626.95;;;32.38;21.97
73974;BME280;62336;-26.094;27.994;2024-01-10T02:04:33;84633.16;;;32.75;22.14
73974;BME280;62336;-26.094;27.994;2024-01-10T02:06:58;84635.31;;;32.61;21.91
73974;BME280;62336;-26.094;27.994;2024-01-10T02:09:24;84639.51;;;31.96;22.45
73974;BME280;62336;-26.094;27.994;2024-01-10T02:11:49;84639.74;;;31.94;22.40
73974;BME280;62336;-26.094;27.994;2024-01-10T02:14:15;84639.93;;;31.69;22.50
73974;BME280;62336;-26.094;27.994;2024-01-10T02:16:40;84643.79;;;32.03;22.32
73974;BME280;62336;-26.094;27.994;2024-01-10T02:19:19;84648.42;;;31.74;22.57
73974;BME280;62336;-26.094;27.994;2024-01-10T02:21:31;84647.17;;;31.00;23.21
73974;BME280;62336;-26.094;27.994;2024-01-10T02:23:56;84647.53;;;31.69;22.58
73974;BME280;62336;-26.094;27.994;2024-01-10T02:26:21;84654.14;;;31.83;22.45
73974;BME280;62336;-26.094;27.994;2024-01-10T02:28:46;84658.81;;;31.58;22.50
73974;BME280;62336;-26.094;27.994;2024-01-10T02:31:12;84664.74;;;31.01;23.10
73974;BME280;62336;-26.094;27.994;2024-01-10T02:33:37;84672.10;;;30.88;23.27
73974;BME280;62336;-26.094;27.994;2024-01-10T02:36:03;84676.16;;;31.06;23.11
73974;BME280;62336;-26.094;27.994;2024-01-10T02:38:28;84672.07;;;31.01;23.28
73974;BME280;62336;-26.094;27.994;2024-01-10T02:40:53;84669.90;;;30.98;23.05
73974;BME280;62336;-26.094;27.994;2024-01-10T02:43:18;84671.67;;;31.09;22.87
73974;BME280;62336;-26.094;27.994;2024-01-10T02:45:43;84677.16;;;31.19;22.86
73974;BME280;62336;-26.094;27.994;2024-01-10T02:48:09;84678.72;;;31.36;23.25
73974;BME280;62336;-26.094;27.994;2024-01-10T02:50:34;84684.16;;;30.80;23.24
73974;BME280;62336;-26.094;27.994;2024-01-10T02:53:00;84690.12;;;31.35;22.50
73974;BME280;62336;-26.094;27.994;2024-01-10T02:55:26;84692.68;;;31.30;22.32
73974;BME280;62336;-26.094;27.994;2024-01-10T02:57:51;84694.04;;;30.99;22.88
73974;BME280;62336;-26.094;27.994;2024-01-10T03:00:17;84694.89;;;30.78;22.88
73974;BME280;62336;-26.094;27.994;2024-01-10T03:02:42;84692.99;;;31.33;22.86
73974;BME280;62336;-26.094;27.994;2024-01-10T03:05:08;84692.37;;;31.48;22.94
73974;BME280;62336;-26.094;27.994;2024-01-10T03:07:33;84696.03;;;30.58;23.41
73974;BME280;62336;-26.094;27.994;2024-01-10T03:09:58;84702.04;;;30.36;23.52
73974;BME280;62336;-26.094;27.994;2024-01-10T03:12:23;84701.28;;;30.37;23.48
73974;BME280;62336;-26.094;27.994;2024-01-10T03:14:49;84699.47;;;29.73;23.76
73974;BME280;62336;-26.094;27.994;2024-01-10T03:17:14;84696.15;;;30.05;23.80
73974;BME280;62336;-26.094;27.994;2024-01-10T03:19:39;84696.31;;;30.12;23.76
73974;BME280;62336;-26.094;27.994;2024-01-10T03:22:06;84696.78;;;30.87;23.32
73974;BME280;62336;-26.094;27.994;2024-01-10T03:24:31;84693.89;;;30.78;23.29
73974;BME280;62336;-26.094;27.994;2024-01-10T03:26:56;84701.10;;;31.10;23.10
73974;BME280;62336;-26.094;27.994;2024-01-10T03:29:22;84705.50;;;31.96;22.67
73974;BME280;62336;-26.094;27.994;2024-01-10T03:31:47;84711.46;;;31.38;23.10
73974;BME280;62336;-26.094;27.994;2024-01-10T03:34:13;84710.87;;;30.78;23.57
73974;BME280;62336;-26.094;27.994;2024-01-10T03:36:38;84711.09;;;30.66;23.63
73974;BME280;62336;-26.094;27.994;2024-01-10T03:39:04;84707.51;;;30.88;23.28
73974;BME280;62336;-26.094;27.994;2024-01-10T03:41:29;84709.66;;;31.86;22.90
73974;BME280;62336;-26.094;27.994;2024-01-10T03:43:55;84716.48;;;32.55;22.26
73974;BME280;62336;-26.094;27.994;2024-01-10T03:46:21;84722.53;;;31.52;22.81
73974;BME280;62336;-26.094;27.994;2024-01-10T03:48:46;84724.10;;;31.95;22.22
73974;BME280;62336;-26.094;27.994;2024-01-10T03:51:11;84725.44;;;31.90;22.21
73974;BME280;62336;-26.094;27.994;2024-01-10T03:53:37;84730.09;;;31.33;23.09
73974;BME280;62336;-26.094;27.994;2024-01-10T03:56:05;84734.51;;;32.40;22.81
73974;BME280;62336;-26.094;27.994;2024-01-10T03:58:28;84734.92;;;31.80;22.92
73974;BME280;62336;-26.094;27.994;2024-01-10T04:00:54;84740.94;;;31.92;22.86
73974;BME280;62336;-26.094;27.994;2024-01-10T04:03:20;84745.53;;;32.28;22.50
73974;BME280;62336;-26.094;27.994;2024-01-10T04:05:45;84744.84;;;31.55;23.22
73974;BME280;62336;-26.094;27.994;2024-01-10T04:08:10;84746.81;;;31.37;23.49
73974;BME280;62336;-26.094;27.994;2024-01-10T04:10:36;84750.27;;;32.24;22.96
73974;BME280;62336;-26.094;27.994;2024-01-10T04:13:02;84748.11;;;32.19;22.86
73974;BME280;62336;-26.094;27.994;2024-01-10T04:15:27;84744.28;;;32.18;22.75
73974;BME280;62336;-26.094;27.994;2024-01-10T04:17:53;84747.01;;;32.18;22.43
73974;BME280;62336;-26.094;27.994;2024-01-10T04:20:18;84744.07;;;31.71;23.34
73974;BME280;62336;-26.094;27.994;2024-01-10T04:22:45;84745.10;;;31.48;23.59
73974;BME280;62336;-26.094;27.994;2024-01-10T04:25:10;84741.94;;;31.33;23.63
73974;BME280;62336;-26.094;27.994;2024-01-10T04:27:33;84747.20;;;31.88;23.35
73974;BME280;62336;-26.094;27.994;2024-01-10T04:29:58;84752.69;;;32.58;23.00
73974;BME280;62336;-26.094;27.994;2024-01-10T04:32:24;84761.06;;;31.99;23.14
73974;BME280;62336;-26.094;27.994;2024-01-10T04:34:49;84763.85;;;31.70;23.37
73974;BME280;62336;-26.094;27.994;2024-01-10T04:37:15;84766.14;;;31.82;23.04
73974;BME280;62336;-26.094;27.994;2024-01-10T04:39:40;84774.97;;;32.68;22.53
73974;BME280;62336;-26.094;27.994;2024-01-10T04:42:06;84776.81;;;32.14;23.23
73974;BME280;62336;-26.094;27.994;2024-01-10T04:44:31;84774.08;;;32.18;22.90
73974;BME280;62336;-26.094;27.994;2024-01-10T04:46:56;84779.11;;;32.37;22.56
73974;BME280;62336;-26.094;27.994;2024-01-10T04:49:22;84785.30;;;32.38;23.23
73974;BME280;62336;-26.094;27.994;2024-01-10T04:51:47;84782.23;;;32.84;22.68
73974;BME280;62336;-26.094;27.994;2024-01-10T04:54:13;84778.98;;;33.09;22.69
73974;BME280;62336;-26.094;27.994;2024-01-10T04:56:39;84785.87;;;32.71;22.78
73974;BME280;62336;-26.094;27.994;2024-01-10T04:59:04;84789.63;;;33.13;22.46
73974;BME280;62336;-26.094;27.994;2024-01-10T05:01:29;84788.52;;;33.68;22.22
73974;BME280;62336;-26.094;27.994;2024-01-10T05:03:54;84788.03;;;33.56;22.14
73974;BME280;62336;-26.094;27.994;2024-01-10T05:06:19;84785.19;;;33.16;22.56
73974;BME280;62336;-26.094;27.994;2024-01-10T05:08:45;84778.53;;;33.55;22.34
73974;BME280;62336;-26.094;27.994;2024-01-10T05:11:11;84775.36;;;33.27;22.83
73974;BME280;62336;-26.094;27.994;2024-01-10T05:13:36;84770.78;;;33.48;22.57
73974;BME280;62336;-26.094;27.994;2024-01-10T05:16:01;84764.39;;;34.40;21.84
73974;BME280;62336;-26.094;27.994;2024-01-10T05:18:26;84764.44;;;35.51;21.37
73974;BME280;62336;-26.094;27.994;2024-01-10T05:20:52;84765.26;;;35.22;21.81
73974;BME280;62336;-26.094;27.994;2024-01-10T05:23:18;84762.93;;;35.18;21.63
73974;BME280;62336;-26.094;27.994;2024-01-10T05:25:43;84762.28;;;34.91;22.04
73974;BME280;62336;-26.094;27.994;2024-01-10T05:28:09;84764.48;;;34.80;21.86
73974;BME280;62336;-26.094;27.994;2024-01-10T05:30:34;84772.49;;;34.99;21.83
73974;BME280;62336;-26.094;27.994;2024-01-10T05:32:59;84780.05;;;34.11;22.43
73974;BME280;62336;-26.094;27.994;2024-01-10T05:35:24;84785.27;;;34.59;22.35
73974;BME280;62336;-26.094;27.994;2024-01-10T05:37:49;84782.57;;;34.78;21.87
73974;BME280;62336;-26.094;27.994;2024-01-10T05:40:15;84787.85;;;34.93;21.92
73974;BME280;62336;-26.094;27.994;2024-01-10T05:42:41;84791.37;;;34.63;22.35
73974;BME280;62336;-26.094;27.994;2024-01-10T05:45:08;84788.87;;;35.14;21.88
73974;BME280;62336;-26.094;27.994;2024-01-10T05:47:32;84794.05;;;35.49;21.47
73974;BME280;62336;-26.094;27.994;2024-01-10T05:49:58;84801.78;;;35.33;21.92
73974;BME280;62336;-26.094;27.994;2024-01-10T05:52:23;84809.19;;;35.42;21.62
73974;BME280;62336;-26.094;27.994;2024-01-10T05:54:49;84809.59;;;35.58;21.50
73974;BME280;62336;-26.094;27.994;2024-01-10T05:57:14;84812.66;;;34.53;22.28
73974;BME280;62336;-26.094;27.994;2024-01-10T05:59:39;84817.77;;;34.87;21.63
73974;BME280;62336;-26.094;27.994;2024-01-10T06:02:04;84823.35;;;35.27;21.78
73974;BME280;62336;-26.094;27.994;2024-01-10T06:04:30;84828.03;;;35.30;21.88
73974;BME280;62336;-26.094;27.994;2024-01-10T06:06:57;84827.59;;;34.38;22.17
73974;BME280;62336;-26.094;27.994;2024-01-10T06:09:21;84828.60;;;34.20;23.20
73974;BME280;62336;-26.094;27.994;2024-01-10T06:11:46;84827.47;;;33.64;23.07
73974;BME280;62336;-26.094;27.994;2024-01-10T06:14:12;84831.08;;;33.72;22.87
73974;BME280;62336;-26.094;27.994;2024-01-10T06:16:38;84831.62;;;34.40;22.76
73974;BME280;62336;-26.094;27.994;2024-01-10T06:19:03;84831.70;;;34.68;22.55
73974;BME280;62336;-26.094;27.994;2024-01-10T06:21:29;84832.55;;;33.90;22.69
73974;BME280;62336;-26.094;27.994;2024-01-10T06:23:55;84829.96;;;34.35;22.41
73974;BME280;62336;-26.094;27.994;2024-01-10T06:26:21;84832.63;;;34.22;22.74
73974;BME280;62336;-26.094;27.994;2024-01-10T06:28:45;84829.67;;;34.07;22.76
73974;BME280;62336;-26.094;27.994;2024-01-10T06:31:11;84828.65;;;34.00;22.56
73974;BME280;62336;-26.094;27.994;2024-01-10T06:33:36;84825.56;;;34.16;22.53
73974;BME280;62336;-26.094;27.994;2024-01-10T06:36:02;84824.00;;;33.90;22.60
73974;BME280;62336;-26.094;27.994;2024-01-10T06:38:27;84825.55;;;34.26;22.46
73974;BME280;62336;-26.094;27.994;2024-01-10T06:40:52;84824.70;;;34.82;22.41
73974;BME280;62336;-26.094;27.994;2024-01-10T06:43:17;84822.99;;;33.82;22.73
73974;BME280;62336;-26.094;27.994;2024-01-10T06:45:43;84820.70;;;34.89;21.99
73974;BME280;62336;-26.094;27.994;2024-01-10T06:48:09;84823.74;;;34.73;22.28
73974;BME280;62336;-26.094;27.994;2024-01-10T06:50:33;84822.00;;;34.45;22.28
73974;BME280;62336;-26.094;27.994;2024-01-10T06:52:59;84822.99;;;34.87;21.96
73974;BME280;62336;-26.094;27.994;2024-01-10T06:55:24;84820.00;;;35.16;21.86
73974;BME280;62336;-26.094;27.994;2024-01-10T06:57:50;84822.37;;;34.55;22.39
73974;BME280;62336;-26.094;27.994;2024-01-10T07:00:17;84820.80;;;34.85;22.29
73974;BME280;62336;-26.094;27.994;2024-01-10T07:02:40;84818.96;;;34.45;22.15
73974;BME280;62336;-26.094;27.994;2024-01-10T07:05:08;84819.48;;;34.98;22.09
73974;BME280;62336;-26.094;27.994;2024-01-10T07:07:31;84818.65;;;35.62;21.74
73974;BME280;62336;-26.094;27.994;2024-01-10T07:09:56;84821.35;;;35.65;21.61
73974;BME280;62336;-26.094;27.994;2024-01-10T07:12:22;84823.21;;;35.73;21.70
73974;BME280;62336;-26.094;27.994;2024-01-10T07:14:47;84825.03;;;36.03;21.30
73974;BME280;62336;-26.094;27.994;2024-01-10T07:17:13;84827.17;;;35.59;21.31
73974;BME280;62336;-26.094;27.994;2024-01-10T07:19:38;84824.77;;;35.72;21.07
73974;BME280;62336;-26.094;27.994;2024-01-10T07:22:04;84818.26;;;35.44;21.13
73974;BME280;62336;-26.094;27.994;2024-01-10T07:24:29;84814.32;;;35.39;21.67
73974;BME280;62336;-26.094;27.994;2024-01-10T07:26:55;84816.01;;;36.05;21.26
73974;BME280;62336;-26.094;27.994;2024-01-10T07:29:20;84815.27;;;35.72;21.04
73974;BME280;62336;-26.094;27.994;2024-01-10T07:31:46;84823.95;;;36.17;21.00
73974;BME280;62336;-26.094;27.994;2024-01-10T07:34:12;84823.38;;;36.00;21.35
73974;BME280;62336;-26.094;27.994;2024-01-10T07:36:42;84822.62;;;35.92;21.24
73974;BME280;62336;-26.094;27.994;2024-01-10T07:39:03;84822.78;;;35.53;21.53
73974;BME280;62336;-26.094;27.994;2024-01-10T07:41:29;84820.66;;;35.50;21.62
73974;BME280;62336;-26.094;27.994;2024-01-10T07:43:54;84818.95;;;35.53;21.36
73974;BME280;62336;-26.094;27.994;2024-01-10T07:46:20;84820.08;;;35.58;21.36
73974;BME280;62336;-26.094;27.994;2024-01-10T07:48:47;84820.03;;;35.55;21.99
73974;BME280;62336;-26.094;27.994;2024-01-10T07:51:11;84820.09;;;35.84;21.83
73974;BME280;62336;-26.094;27.994;2024-01-10T07:53:36;84827.15;;;35.82;22.44
73974;BME280;62336;-26.094;27.994;2024-01-10T07:56:03;84831.83;;;35.34;23.15
73974;BME280;62336;-26.094;27.994;2024-01-10T07:58:28;84830.99;;;35.21;25.00
73974;BME280;62336;-26.094;27.994;2024-01-10T08:00:53;84838.38;;;34.98;24.04
73974;BME280;62336;-26.094;27.994;2024-01-10T08:03:18;84849.11;;;35.05;23.63
73974;BME280;62336;-26.094;27.994;2024-01-10T08:05:43;84857.68;;;34.20;24.74
73974;BME280;62336;-26.094;27.994;2024-01-10T08:08:09;84867.19;;;34.38;24.81
73974;BME280;62336;-26.094;27.994;2024-01-10T08:10:34;84894.01;;;34.83;23.96
73974;BME280;62336;-26.094;27.994;2024-01-10T08:13:00;84907.63;;;34.02;22.72
73974;BME280;62336;-26.094;27.994;2024-01-10T08:15:26;84913.82;;;34.00;23.57
73974;BME280;62336;-26.094;27.994;2024-01-10T08:17:52;84911.50;;;34.23;22.75
73974;BME280;62336;-26.094;27.994;2024-01-10T08:20:17;84907.68;;;34.05;22.24
73974;BME280;62336;-26.094;27.994;2024-01-10T08:22:43;84908.01;;;34.31;22.73
73974;BME280;62336;-26.094;27.994;2024-01-10T08:25:09;84910.15;;;33.71;23.21
73974;BME280;62336;-26.094;27.994;2024-01-10T08:27:35;84905.35;;;33.80;22.67
73974;BME280;62336;-26.094;27.994;2024-01-10T08:30:01;84898.09;;;32.77;24.40
73974;BME280;62336;-26.094;27.994;2024-01-10T08:32:27;84897.11;;;32.39;24.08
73974;BME280;62336;-26.094;27.994;2024-01-10T08:34:52;84878.41;;;32.71;24.02
73974;BME280;62336;-26.094;27.994;2024-01-10T08:37:18;84874.34;;;33.23;24.32
73974;BME280;62336;-26.094;27.994;2024-01-10T08:39:44;84874.10;;;33.15;23.74
73974;BME280;62336;-26.094;27.994;2024-01-10T08:42:09;84870.64;;;33.31;24.05
73974;BME280;62336;-26.094;27.994;2024-01-10T08:44:35;84862.85;;;32.89;23.78
73974;BME280;62336;-26.094;27.994;2024-01-10T08:47:01;84856.66;;;32.39;23.70
73974;BME280;62336;-26.094;27.994;2024-01-10T08:49:27;84856.04;;;32.65;23.54
73974;BME280;62336;-26.094;27.994;2024-01-10T08:51:52;84860.74;;;33.22;24.03
73974;BME280;62336;-26.094;27.994;2024-01-10T08:54:19;84863.78;;;33.23;24.07
73974;BME280;62336;-26.094;27.994;2024-01-10T08:56:44;84866.90;;;33.53;23.85
73974;BME280;62336;-26.094;27.994;2024-01-10T08:59:11;84866.46;;;33.00;23.84
73974;BME280;62336;-26.094;27.994;2024-01-10T09:01:36;84869.50;;;33.48;23.68
73974;BME280;62336;-26.094;27.994;2024-01-10T09:04:02;84870.59;;;33.49;23.79
73974;BME280;62336;-26.094;27.994;2024-01-10T09:06:27;84872.46;;;33.43;23.94
73974;BME280;62336;-26.094;27.994;2024-01-10T09:08:53;84869.40;;;33.00;24.35
73974;BME280;62336;-26.094;27.994;2024-01-10T09:11:19;84863.06;;;32.84;24.92
73974;BME280;62336;-26.094;27.994;2024-01-10T09:13:45;84859.59;;;33.55;24.08
73974;BME280;62336;-26.094;27.994;2024-01-10T09:16:11;84853.31;;;34.12;23.41
73974;BME280;62336;-26.094;27.994;2024-01-10T09:18:36;84847.57;;;34.55;23.96
73974;BME280;62336;-26.094;27.994;2024-01-10T09:21:04;84843.05;;;34.85;23.66
73974;BME280;62336;-26.094;27.994;2024-01-10T09:23:28;84840.78;;;34.81;22.98
73974;BME280;62336;-26.094;27.994;2024-01-10T09:25:54;84843.50;;;34.83;23.34
73974;BME280;62336;-26.094;27.994;2024-01-10T09:28:20;84847.07;;;34.27;23.28
73974;BME280;62336;-26.094;27.994;2024-01-10T09:30:46;84843.69;;;34.14;23.21
73974;BME280;62336;-26.094;27.994;2024-01-10T09:33:11;84844.21;;;34.39;22.71
73974;BME280;62336;-26.094;27.994;2024-01-10T09:35:37;84836.27;;;34.39;23.37
73974;BME280;62336;-26.094;27.994;2024-01-10T09:38:03;84837.00;;;34.70;22.97
73974;BME280;62336;-26.094;27.994;2024-01-10T09:40:29;84833.87;;;35.17;23.20
73974;BME280;62336;-26.094;27.994;2024-01-10T09:42:55;84831.85;;;34.84;23.17
73974;BME280;62336;-26.094;27.994;2024-01-10T09:45:21;84827.59;;;34.88;23.12
73974;BME280;62336;-26.094;27.994;2024-01-10T09:47:48;84823.72;;;35.02;22.53
73974;BME280;62336;-26.094;27.994;2024-01-10T09:50:12;84823.20;;;35.28;23.11
73974;BME280;62336;-26.094;27.994;2024-01-10T09:52:42;84826.40;;;35.58;22.70
73974;BME280;62336;-26.094;27.994;2024-01-10T09:55:03;84826.57;;;35.66;22.14
73974;BME280;62336;-26.094;27.994;2024-01-10T09:57:29;84828.38;;;35.62;21.34
73974;BME280;62336;-26.094;27.994;2024-01-10T09:59:55;84829.08;;;36.02;21.53
73974;BME280;62336;-26.094;27.994;2024-01-10T10:02:23;84822.42;;;36.22;21.78
73974;BME280;62336;-26.094;27.994;2024-01-10T10:04:49;84819.61;;;35.96;21.25
73974;BME280;62336;-26.094;27.994;2024-01-10T10:07:11;84814.56;;;35.89;22.04
73974;BME280;62336;-26.094;27.994;2024-01-10T10:09:37;84817.02;;;36.64;21.04
73974;BME280;62336;-26.094;27.994;2024-01-10T10:12:03;84812.65;;;36.81;21.40
73974;BME280;62336;-26.094;27.994;2024-01-10T10:14:29;84810.93;;;36.63;21.26
73974;BME280;62336;-26.094;27.994;2024-01-10T10:16:54;84806.19;;;37.03;20.98
73974;BME280;62336;-26.094;27.994;2024-01-10T10:19:23;84802.97;;;36.90;21.24
73974;BME280;62336;-26.094;27.994;2024-01-10T10:21:46;84798.55;;;36.74;21.41
73974;BME280;62336;-26.094;27.994;2024-01-10T10:24:11;84793.27;;;37.13;20.64
73974;BME280;62336;-26.094;27.994;2024-01-10T10:26:40;84785.35;;;36.97;19.33
73974;BME280;62336;-26.094;27.994;2024-01-10T10:29:03;84773.79;;;38.05;19.09
73974;BME280;62336;-26.094;27.994;2024-01-10T10:31:29;84779.72;;;37.30;20.40
73974;BME280;62336;-26.094;27.994;2024-01-10T10:33:55;84776.97;;;38.03;19.35
73974;BME280;62336;-26.094;27.994;2024-01-10T10:36:23;84774.39;;;37.77;19.54
73974;BME280;62336;-26.094;27.994;2024-01-10T10:38:48;84767.10;;;37.92;18.94
73974;BME280;62336;-26.094;27.994;2024-01-10T10:41:12;84763.34;;;37.77;19.50
73974;BME280;62336;-26.094;27.994;2024-01-10T10:43:41;84757.97;;;38.13;18.84
73974;BME280;62336;-26.094;27.994;2024-01-10T10:46:09;84752.53;;;37.94;19.12
73974;BME280;62336;-26.094;27.994;2024-01-10T10:48:33;84754.02;;;38.04;20.30
73974;BME280;62336;-26.094;27.994;2024-01-10T10:51:03;84755.39;;;38.17;18.54
73974;BME280;62336;-26.094;27.994;2024-01-10T10:53:23;84754.39;;;37.83;18.93
73974;BME280;62336;-26.094;27.994;2024-01-10T10:55:50;84755.05;;;38.16;18.15
73974;BME280;62336;-26.094;27.994;2024-01-10T10:58:13;84756.55;;;37.73;18.09
73974;BME280;62336;-26.094;27.994;2024-01-10T11:00:38;84757.43;;;37.76;17.52
73974;BME280;62336;-26.094;27.994;2024-01-10T11:03:12;84754.74;;;37.74;18.75
73974;BME280;62336;-26.094;27.994;2024-01-10T11:05:30;84760.93;;;37.10;18.87
73974;BME280;62336;-26.094;27.994;2024-01-10T11:08:04;84757.88;;;37.97;18.36
73974;BME280;62336;-26.094;27.994;2024-01-10T11:10:27;84754.82;;;37.37;18.60
73974;BME280;62336;-26.094;27.994;2024-01-10T11:22:40;84740.82;;;37.91;19.02
73974;BME280;62336;-26.094;27.994;2024-01-10T11:24:56;84740.62;;;37.80;18.94
73974;BME280;62336;-26.094;27.994;2024-01-10T11:27:21;84739.29;;;37.29;19.19
73974;BME280;62336;-26.094;27.994;2024-01-10T11:29:46;84740.12;;;36.77;19.49
73974;BME280;62336;-26.094;27.994;2024-01-10T11:32:14;84728.43;;;36.92;18.82
73974;BME280;62336;-26.094;27.994;2024-01-10T11:34:36;84726.09;;;36.86;19.78
73974;BME280;62336;-26.094;27.994;2024-01-10T11:37:11;84722.60;;;36.76;19.76
73974;BME280;62336;-26.094;27.994;2024-01-10T11:39:28;84712.23;;;37.88;19.18
73974;BME280;62336;-26.094;27.994;2024-01-10T11:41:53;84706.77;;;37.94;19.83
73974;BME280;62336;-26.094;27.994;2024-01-10T11:44:29;84700.96;;;37.92;19.51
73974;BME280;62336;-26.094;27.994;2024-01-10T11:46:47;84689.62;;;38.22;18.90
73974;BME280;62336;-26.094;27.994;2024-01-10T11:49:11;84686.61;;;38.81;17.97
73974;BME280;62336;-26.094;27.994;2024-01-10T11:51:36;84686.90;;;38.74;17.99
73974;BME280;62336;-26.094;27.994;2024-01-10T11:54:01;84687.11;;;39.01;17.70
73974;BME280;62336;-26.094;27.994;2024-01-10T11:59:07;84693.48;;;39.05;18.22
73974;BME280;62336;-26.094;27.994;2024-01-10T12:01:16;84690.57;;;39.29;16.84
73974;BME280;62336;-26.094;27.994;2024-01-10T12:03:42;84691.37;;;39.28;18.73
73974;BME280;62336;-26.094;27.994;2024-01-10T12:06:07;84689.25;;;38.65;18.08
73974;BME280;62336;-26.094;27.994;2024-01-10T12:08:32;84691.26;;;38.55;18.34
73974;BME280;62336;-26.094;27.994;2024-01-10T12:10:57;84694.74;;;39.53;17.47
73974;BME280;62336;-26.094;27.994;2024-01-10T12:13:22;84694.17;;;39.07;16.57
73974;BME280;62336;-26.094;27.994;2024-01-10T12:15:48;84690.98;;;39.30;17.04
73974;BME280;62336;-26.094;27.994;2024-01-10T12:18:13;84692.94;;;38.79;18.20
73974;BME280;62336;-26.094;27.994;2024-01-10T12:20:38;84691.92;;;38.86;17.44
73974;BME280;62336;-26.094;27.994;2024-01-10T12:23:04;84687.51;;;38.33;18.51
73974;BME280;62336;-26.094;27.994;2024-01-10T12:25:30;84688.18;;;38.43;17.91
73974;BME280;62336;-26.094;27.994;2024-01-10T12:30:21;84686.40;;;39.01;18.33
73974;BME280;62336;-26.094;27.994;2024-01-10T12:32:52;84686.33;;;38.49;17.93
73974;BME280;62336;-26.094;27.994;2024-01-10T12:35:13;84683.33;;;38.61;17.57
73974;BME280;62336;-26.094;27.994;2024-01-10T12:37:38;84680.65;;;38.05;17.36
73974;BME280;62336;-26.094;27.994;2024-01-10T12:40:09;84677.71;;;38.43;17.94
73974;BME280;62336;-26.094;27.994;2024-01-10T12:42:29;84674.62;;;38.16;18.43
73974;BME280;62336;-26.094;27.994;2024-01-10T12:44:55;84671.26;;;38.55;17.91